createdAt,value
2022-11-15T00:00:57.600Z,8.80
2022-11-15T00:03:26.725Z,9.30
2022-11-15T00:05:53.694Z,8.93
2022-11-15T00:08:21.212Z,8.83
2022-11-15T00:11:01.922Z,8.80
2022-11-15T00:13:29.415Z,8.50
2022-11-15T00:16:00.480Z,8.47
2022-11-15T00:18:28.172Z,7.90
2022-11-15T00:20:54.923Z,10.20
2022-11-15T00:23:21.739Z,9.60
2022-11-15T00:25:48.522Z,9.70
2022-11-15T00:28:15.255Z,9.40
2022-11-15T00:30:41.992Z,9.20
2022-11-15T00:33:10.887Z,9.13
2022-11-15T00:35:37.666Z,8.53
2022-11-15T00:38:13.486Z,10.87
2022-11-15T00:40:40.239Z,9.23
2022-11-15T00:43:07.024Z,8.90
2022-11-15T00:45:33.808Z,9.07
2022-11-15T00:48:00.526Z,8.93
2022-11-15T00:50:27.263Z,9.77
2022-11-15T00:52:54.017Z,9.13
2022-11-15T00:55:21.000Z,8.53
2022-11-15T00:57:47.899Z,8.70
2022-11-15T01:00:15.118Z,8.50
2022-11-15T01:02:41.933Z,8.63
2022-11-15T01:05:09.555Z,8.37
2022-11-15T01:07:36.847Z,8.40
2022-11-15T01:10:04.685Z,8.33
2022-11-15T01:12:31.785Z,8.17
2022-11-15T01:14:58.612Z,7.60
2022-11-15T01:17:25.470Z,7.43
2022-11-15T01:19:52.226Z,8.73
2022-11-15T01:22:19.398Z,7.20
2022-11-15T01:24:46.209Z,7.90
2022-11-15T01:27:12.900Z,7.40
2022-11-15T01:29:39.647Z,8.77
2022-11-15T01:32:06.391Z,7.63
2022-11-15T01:34:33.208Z,7.73
2022-11-15T01:37:00.027Z,7.50
2022-11-15T01:39:27.614Z,6.90
2022-11-15T01:41:54.661Z,8.30
2022-11-15T01:44:48.627Z,7.30
2022-11-15T01:47:21.368Z,7.60
2022-11-15T01:50:01.939Z,8.53
2022-11-15T01:52:31.434Z,7.70
2022-11-15T01:55:15.936Z,7.60
2022-11-15T01:57:46.279Z,7.70
2022-11-15T02:00:13.879Z,7.40
2022-11-15T02:02:41.315Z,8.20
2022-11-15T02:05:08.522Z,7.57
2022-11-15T02:07:36.715Z,8.07
2022-11-15T02:10:12.193Z,7.07
2022-11-15T02:12:39.275Z,7.63
2022-11-15T02:15:07.910Z,7.70
2022-11-15T02:17:34.644Z,7.90
2022-11-15T02:20:20.244Z,7.43
2022-11-15T02:23:05.520Z,7.90
2022-11-15T02:26:02.581Z,8.20
2022-11-15T02:29:04.531Z,6.97
2022-11-15T02:31:49.312Z,7.90
2022-11-15T02:34:26.572Z,7.87
2022-11-15T02:37:02.155Z,7.60
2022-11-15T02:39:52.867Z,8.30
2022-11-15T02:42:43.771Z,7.37
2022-11-15T02:45:13.691Z,8.20
2022-11-15T02:47:46.674Z,7.50
2022-11-15T02:50:21.238Z,8.33
2022-11-15T02:52:50.287Z,8.20
2022-11-15T02:55:48.742Z,8.53
2022-11-15T02:58:24.250Z,8.20
2022-11-15T03:01:38.346Z,8.27
2022-11-15T03:04:34.256Z,9.17
2022-11-15T03:07:09.786Z,9.83
2022-11-15T03:10:05.863Z,10.07
2022-11-15T03:12:47.100Z,9.00
2022-11-15T03:15:36.741Z,10.23
2022-11-15T03:18:11.447Z,10.07
2022-11-15T03:20:38.377Z,11.40
2022-11-15T03:23:08.969Z,10.57
2022-11-15T03:25:41.397Z,9.80
2022-11-15T03:28:12.130Z,11.13
2022-11-15T03:30:40.876Z,10.20
2022-11-15T03:33:09.395Z,10.83
2022-11-15T03:35:41.636Z,11.50
2022-11-15T03:38:27.512Z,11.97
2022-11-15T03:41:02.160Z,12.40
2022-11-15T03:43:36.791Z,12.70
2022-11-15T03:46:20.304Z,11.93
2022-11-15T03:49:09.459Z,13.30
2022-11-15T03:51:36.634Z,12.50
2022-11-15T03:54:06.591Z,12.30
2022-11-15T03:56:34.464Z,13.60
2022-11-15T03:59:01.385Z,13.60
2022-11-15T04:01:28.162Z,13.23
2022-11-15T04:03:55.035Z,13.23
2022-11-15T04:06:21.905Z,13.63
2022-11-15T04:08:48.585Z,13.13
2022-11-15T04:11:15.350Z,13.60
2022-11-15T04:13:42.017Z,13.60
2022-11-15T04:16:08.751Z,12.60
2022-11-15T04:18:35.408Z,11.53
2022-11-15T04:21:20.782Z,12.63
2022-11-15T04:24:06.114Z,12.77
2022-11-15T04:26:33.433Z,12.07
2022-11-15T04:29:18.683Z,11.60
2022-11-15T04:31:45.381Z,12.20
2022-11-15T04:34:12.051Z,13.07
2022-11-15T04:36:57.595Z,12.77
2022-11-15T04:39:24.279Z,12.83
2022-11-15T04:41:51.015Z,13.80
2022-11-15T04:44:17.869Z,13.67
2022-11-15T04:46:44.627Z,13.60
2022-11-15T04:49:11.424Z,14.67
2022-11-15T04:51:38.369Z,14.03
2022-11-15T04:54:05.231Z,14.00
2022-11-15T04:56:31.966Z,15.07
2022-11-15T04:58:58.735Z,13.73
2022-11-15T05:01:25.503Z,14.13
2022-11-15T05:04:10.923Z,13.47
2022-11-15T05:06:37.673Z,12.40
2022-11-15T05:09:04.744Z,13.30
2022-11-15T05:11:31.878Z,13.07
2022-11-15T05:13:58.537Z,12.67
2022-11-15T05:16:25.275Z,12.87
2022-11-15T05:18:55.952Z,12.57
2022-11-15T05:21:22.695Z,12.60
2022-11-15T05:23:49.451Z,12.83
2022-11-15T05:26:18.445Z,12.30
2022-11-15T05:28:45.309Z,11.43
2022-11-15T05:31:15.011Z,12.17
2022-11-15T05:33:43.178Z,12.47
2022-11-15T05:36:28.439Z,12.00
2022-11-15T05:38:55.544Z,12.13
2022-11-15T05:41:46.702Z,12.33
2022-11-15T05:44:16.484Z,11.53
2022-11-15T05:46:43.843Z,11.23
2022-11-15T05:49:15.073Z,11.63
2022-11-15T05:51:45.608Z,13.10
2022-11-15T05:54:12.748Z,11.23
2022-11-15T05:56:39.990Z,11.83
2022-11-15T05:59:08.326Z,13.20
2022-11-15T06:01:35.149Z,13.30
2022-11-15T06:04:01.932Z,12.63
2022-11-15T06:06:29.837Z,12.10
2022-11-15T06:08:56.663Z,11.97
2022-11-15T06:11:23.469Z,12.80
2022-11-15T06:13:50.171Z,11.97
2022-11-15T06:16:16.898Z,12.83
2022-11-15T06:18:43.994Z,11.30
2022-11-15T06:21:10.648Z,11.73
2022-11-15T06:23:37.371Z,11.90
2022-11-15T06:26:04.516Z,11.97
2022-11-15T06:28:32.787Z,13.73
2022-11-15T06:31:07.408Z,11.03
2022-11-15T06:33:34.544Z,11.63
2022-11-15T06:36:06.729Z,11.20
2022-11-15T06:38:33.454Z,11.10
2022-11-15T06:41:09.653Z,10.97
2022-11-15T06:43:36.736Z,11.37
2022-11-15T06:46:05.658Z,11.00
2022-11-15T06:48:33.784Z,10.93
2022-11-15T06:51:02.382Z,9.80
2022-11-15T06:53:30.666Z,9.43
2022-11-15T06:56:05.586Z,9.60
2022-11-15T06:58:32.456Z,9.30
2022-11-15T07:01:04.635Z,9.57
2022-11-15T07:03:32.286Z,10.07
2022-11-15T07:06:04.235Z,10.10
2022-11-15T07:08:34.297Z,9.50
2022-11-15T07:11:06.723Z,9.57
2022-11-15T07:13:35.023Z,9.03
2022-11-15T07:16:06.349Z,9.97
2022-11-15T07:18:35.917Z,9.00
2022-11-15T07:21:07.650Z,9.10
2022-11-15T07:23:36.588Z,8.67
2022-11-15T07:26:03.541Z,8.87
2022-11-15T07:28:30.308Z,9.20
2022-11-15T07:30:57.308Z,8.47
2022-11-15T07:33:24.048Z,8.17
2022-11-15T07:35:50.806Z,8.80
2022-11-15T07:38:21.079Z,8.27
2022-11-15T07:40:48.490Z,8.53
2022-11-15T07:43:15.194Z,8.27
2022-11-15T07:45:46.310Z,7.60
2022-11-15T07:48:13.106Z,8.60
2022-11-15T07:50:43.635Z,7.00
2022-11-15T07:53:11.483Z,7.20
2022-11-15T07:55:40.970Z,7.67
2022-11-15T07:58:13.048Z,6.60
2022-11-15T08:00:39.833Z,6.80
2022-11-15T08:03:09.493Z,7.57
2022-11-15T08:05:37.069Z,6.73
2022-11-15T08:08:04.697Z,7.60
2022-11-15T08:10:34.239Z,7.13
2022-11-15T08:13:07.694Z,7.30
2022-11-15T08:15:35.546Z,7.17
2022-11-15T08:18:05.384Z,6.50
2022-11-15T08:20:33.170Z,5.70
2022-11-15T08:23:01.314Z,7.00
2022-11-15T08:25:29.763Z,6.07
2022-11-15T08:28:01.650Z,6.17
2022-11-15T08:30:29.179Z,6.23
2022-11-15T08:32:58.479Z,5.40
2022-11-15T08:35:29.018Z,6.67
2022-11-15T08:37:56.410Z,5.87
2022-11-15T08:40:23.809Z,5.33
2022-11-15T08:42:50.516Z,4.90
2022-11-15T08:45:17.382Z,5.50
2022-11-15T08:47:44.123Z,5.30
2022-11-15T08:50:11.098Z,5.90
2022-11-15T08:52:37.775Z,5.30
2022-11-15T08:55:04.849Z,5.50
2022-11-15T08:57:31.731Z,5.43
2022-11-15T08:59:58.778Z,5.20
2022-11-15T09:02:25.634Z,5.30
2022-11-15T09:04:52.343Z,4.53
2022-11-15T09:07:19.336Z,4.90
2022-11-15T09:09:46.105Z,4.50
2022-11-15T09:12:12.784Z,5.00
2022-11-15T09:14:39.886Z,4.83
2022-11-15T09:17:09.782Z,4.60
2022-11-15T09:19:37.800Z,4.47
2022-11-15T09:22:07.893Z,4.43
2022-11-15T09:24:35.243Z,4.33
2022-11-15T09:27:02.012Z,4.00
2022-11-15T09:29:28.789Z,4.30
2022-11-15T09:31:55.721Z,3.70
2022-11-15T09:34:22.427Z,3.90
2022-11-15T09:36:49.102Z,4.00
2022-11-15T09:39:15.952Z,3.87
2022-11-15T09:42:13.206Z,3.37
2022-11-15T09:45:29.815Z,3.83
2022-11-15T09:48:11.255Z,3.17
2022-11-15T09:50:51.194Z,3.30
2022-11-15T09:56:28.588Z,2.97
2022-11-15T09:59:16.511Z,2.93
2022-11-15T10:02:08.908Z,3.10
2022-11-15T10:04:38.016Z,3.20
2022-11-15T10:07:17.201Z,2.90
2022-11-15T10:09:58.107Z,2.53
2022-11-15T10:12:26.630Z,2.70
2022-11-15T10:15:02.170Z,2.80
2022-11-15T10:17:41.857Z,2.63
2022-11-15T10:20:08.632Z,2.33
2022-11-15T10:22:45.295Z,2.53
2022-11-15T10:25:26.763Z,2.50
2022-11-15T10:28:18.920Z,2.40
2022-11-15T10:30:48.809Z,2.80
2022-11-15T10:33:27.130Z,2.63
2022-11-15T10:36:12.593Z,2.50
2022-11-15T10:38:51.528Z,2.93
2022-11-15T10:41:20.975Z,2.90
2022-11-15T10:44:09.593Z,2.37
2022-11-15T10:46:47.528Z,2.80
2022-11-15T10:49:17.904Z,2.50
2022-11-15T10:52:20.244Z,2.30
2022-11-15T10:54:54.925Z,2.30
2022-11-15T10:57:26.739Z,2.20
2022-11-15T10:59:57.486Z,2.30
2022-11-15T11:02:31.942Z,2.70
2022-11-15T11:04:59.464Z,2.43
2022-11-15T11:07:34.733Z,2.10
2022-11-15T11:10:49.245Z,2.00
2022-11-15T11:13:24.002Z,1.80
2022-11-15T11:16:15.867Z,2.00
2022-11-15T11:18:57.543Z,1.90
2022-11-15T11:21:54.957Z,2.10
2022-11-15T11:24:57.022Z,2.10
2022-11-15T11:27:48.599Z,2.20
2022-11-15T11:30:18.465Z,2.30
2022-11-15T11:32:45.155Z,1.90
2022-11-15T11:35:30.092Z,2.00
2022-11-15T11:38:16.484Z,1.90
2022-11-15T11:41:08.068Z,1.90
2022-11-15T11:43:46.937Z,2.30
2022-11-15T11:46:28.801Z,2.17
2022-11-15T11:49:05.417Z,2.70
2022-11-15T11:51:43.129Z,2.13
2022-11-15T11:54:41.040Z,2.60
2022-11-15T11:57:26.748Z,3.03
2022-11-15T12:00:03.682Z,2.30
2022-11-15T12:02:32.863Z,2.20
2022-11-15T12:05:33.463Z,3.00
2022-11-15T12:08:12.180Z,3.00
2022-11-15T12:10:40.208Z,3.00
2022-11-15T12:13:22.173Z,2.47
2022-11-15T12:16:10.484Z,2.50
2022-11-15T12:18:38.548Z,2.13
2022-11-15T12:21:17.666Z,2.53
2022-11-15T12:23:51.666Z,2.40
2022-11-15T12:26:22.698Z,2.93
2022-11-15T12:29:07.589Z,2.63
2022-11-15T12:31:44.737Z,2.37
2022-11-15T12:34:37.379Z,2.77
2022-11-15T12:37:35.937Z,2.37
2022-11-15T12:40:24.131Z,2.43
2022-11-15T12:43:04.820Z,2.73
2022-11-15T12:45:39.710Z,2.57
2022-11-15T12:48:18.603Z,2.27
2022-11-15T12:50:56.059Z,2.37
2022-11-15T12:53:25.759Z,2.30
2022-11-15T12:56:04.280Z,2.43
2022-11-15T12:58:49.483Z,2.33
2022-11-15T13:01:31.684Z,2.97
2022-11-15T13:04:19.436Z,2.17
2022-11-15T13:06:56.920Z,2.60
2022-11-15T13:09:53.412Z,2.90
2022-11-15T13:12:23.076Z,2.27
2022-11-15T13:15:02.505Z,2.60
2022-11-15T13:17:29.236Z,2.60
2022-11-15T13:20:07.879Z,3.73
2022-11-15T13:23:03.071Z,3.30
2022-11-15T13:25:32.689Z,2.40
2022-11-15T13:28:03.599Z,2.57
2022-11-15T13:30:33.539Z,3.50
2022-11-15T13:33:09.540Z,3.10
2022-11-15T13:35:41.027Z,3.77
2022-11-15T13:38:18.142Z,3.30
2022-11-15T13:40:44.917Z,3.67
2022-11-15T13:43:28.562Z,4.00
2022-11-15T13:46:13.769Z,3.43
2022-11-15T13:48:42.009Z,3.60
2022-11-15T13:51:45.215Z,3.57
2022-11-15T13:54:45.123Z,3.80
2022-11-15T13:57:20.064Z,3.43
2022-11-15T13:59:55.132Z,3.90
2022-11-15T14:02:34.377Z,3.47
2022-11-15T14:05:13.853Z,3.40
2022-11-15T14:07:44.427Z,3.63
2022-11-15T14:10:30.982Z,3.13
2022-11-15T14:12:58.714Z,3.90
2022-11-15T14:15:35.017Z,3.23
2022-11-15T14:18:02.733Z,3.77
2022-11-15T14:20:35.434Z,3.20
2022-11-15T14:23:05.323Z,3.20
2022-11-15T14:25:36.431Z,3.13
2022-11-15T14:28:23.139Z,3.40
2022-11-15T14:30:52.617Z,3.30
2022-11-15T14:33:29.475Z,3.20
2022-11-15T14:35:58.294Z,3.57
2022-11-15T14:38:28.123Z,3.50
2022-11-15T14:40:56.716Z,3.47
2022-11-15T14:43:23.842Z,3.97
2022-11-15T14:45:50.579Z,3.83
2022-11-15T14:48:17.258Z,4.03
2022-11-15T14:50:44.950Z,4.80
2022-11-15T14:53:14.492Z,5.03
2022-11-15T14:55:41.178Z,4.50
2022-11-15T14:58:11.368Z,4.27
2022-11-15T15:00:40.491Z,3.63
2022-11-15T15:03:07.952Z,4.73
2022-11-15T15:05:35.771Z,4.47
2022-11-15T15:08:03.072Z,3.60
2022-11-15T15:10:42.003Z,3.70
2022-11-15T15:13:23.605Z,3.87
2022-11-15T15:15:51.895Z,3.63
2022-11-15T15:18:18.957Z,3.60
2022-11-15T15:20:55.286Z,3.47
2022-11-15T15:23:22.160Z,3.47
2022-11-15T15:25:50.146Z,3.00
2022-11-15T15:28:17.393Z,3.50
2022-11-15T15:30:44.598Z,3.53
2022-11-15T15:33:11.406Z,3.67
2022-11-15T15:35:38.139Z,3.77
2022-11-15T15:38:05.403Z,3.20
2022-11-15T15:40:33.675Z,4.10
2022-11-15T15:43:00.844Z,3.40
2022-11-15T15:45:28.617Z,4.33
2022-11-15T15:47:56.008Z,3.83
2022-11-15T15:50:23.096Z,3.70
2022-11-15T15:52:51.133Z,4.00
2022-11-15T15:55:17.979Z,4.40
2022-11-15T15:57:44.796Z,4.07
2022-11-15T16:00:12.218Z,4.60
2022-11-15T16:02:40.791Z,4.67
2022-11-15T16:05:09.077Z,3.17
2022-11-15T16:07:36.257Z,3.53
2022-11-15T16:10:25.837Z,3.50
2022-11-15T16:12:53.885Z,3.20
2022-11-15T16:15:22.027Z,3.40
2022-11-15T16:17:52.468Z,2.93
2022-11-15T16:20:30.319Z,3.10
2022-11-15T16:22:57.601Z,2.70
2022-11-15T16:25:24.567Z,3.13
2022-11-15T16:27:51.312Z,2.90
2022-11-15T16:30:22.295Z,2.70
2022-11-15T16:32:49.146Z,3.33
2022-11-15T16:35:17.345Z,3.07
2022-11-15T16:37:46.561Z,2.80
2022-11-15T16:40:42.505Z,3.60
2022-11-15T16:43:09.265Z,2.87
2022-11-15T16:45:36.078Z,3.07
2022-11-15T16:48:03.190Z,3.30
2022-11-15T16:50:35.075Z,3.10
2022-11-15T16:53:02.089Z,3.37
2022-11-15T16:55:30.407Z,3.10
2022-11-15T16:58:01.884Z,3.67
2022-11-15T17:00:29.041Z,3.50
2022-11-15T17:02:56.237Z,3.17
2022-11-15T17:05:24.285Z,3.17
2022-11-15T17:07:54.755Z,3.63
2022-11-15T17:10:23.161Z,3.40
2022-11-15T17:12:51.023Z,3.67
2022-11-15T17:15:18.690Z,4.03
2022-11-15T17:17:50.783Z,3.23
2022-11-15T17:20:18.918Z,3.23
2022-11-15T17:22:47.270Z,3.53
2022-11-15T17:25:14.591Z,3.20
2022-11-15T17:27:41.748Z,3.20
2022-11-15T17:30:10.438Z,4.70
2022-11-15T17:32:37.570Z,4.50
2022-11-15T17:35:11.955Z,4.77
2022-11-15T17:37:40.526Z,5.20
2022-11-15T17:40:07.932Z,3.57
2022-11-15T17:42:34.660Z,3.70
2022-11-15T17:45:06.547Z,3.10
2022-11-15T17:47:36.572Z,3.73
2022-11-15T17:50:03.560Z,4.07
2022-11-15T17:52:30.309Z,3.77
2022-11-15T17:54:57.086Z,3.67
2022-11-15T17:57:24.170Z,3.73
2022-11-15T17:59:50.941Z,3.60
2022-11-15T18:02:17.720Z,3.17
2022-11-15T18:04:44.434Z,3.73
2022-11-15T18:07:12.553Z,3.70
2022-11-15T18:09:42.411Z,5.30
2022-11-15T18:12:10.493Z,5.10
2022-11-15T18:14:37.390Z,4.70
2022-11-15T18:17:04.521Z,4.53
2022-11-15T18:19:31.311Z,3.70
2022-11-15T18:21:58.934Z,4.00
2022-11-15T18:24:34.684Z,4.13
2022-11-15T18:27:03.722Z,4.43
2022-11-15T18:29:30.789Z,4.93
2022-11-15T18:31:58.752Z,5.10
2022-11-15T18:34:31.802Z,5.33
2022-11-15T18:36:59.167Z,4.27
2022-11-15T18:39:25.881Z,4.70
2022-11-15T18:41:52.747Z,4.97
2022-11-15T18:44:19.754Z,4.53
2022-11-15T18:46:46.662Z,4.20
2022-11-15T18:49:16.445Z,4.33
2022-11-15T18:51:44.023Z,5.00
2022-11-15T18:54:12.866Z,4.97
2022-11-15T18:56:40.227Z,4.50
2022-11-15T18:59:08.366Z,4.90
2022-11-15T19:01:40.888Z,5.10
2022-11-15T19:04:17.594Z,4.80
2022-11-15T19:06:48.787Z,4.37
2022-11-15T19:09:17.531Z,5.30
2022-11-15T19:11:45.880Z,5.30
2022-11-15T19:14:15.211Z,5.10
2022-11-15T19:16:52.126Z,4.87
2022-11-15T19:19:21.514Z,5.07
2022-11-15T19:21:48.532Z,5.33
2022-11-15T19:24:15.535Z,4.10
2022-11-15T19:26:42.947Z,4.60
2022-11-15T19:29:10.429Z,4.80
2022-11-15T19:31:37.750Z,5.10
2022-11-15T19:34:05.934Z,4.43
2022-11-15T19:36:38.081Z,4.93
2022-11-15T19:39:09.638Z,5.10
2022-11-15T19:41:38.689Z,4.43
2022-11-15T19:44:06.931Z,4.67
2022-11-15T19:46:34.233Z,4.50
2022-11-15T19:49:01.449Z,5.07
2022-11-15T19:51:30.825Z,4.50
2022-11-15T19:54:01.434Z,4.53
2022-11-15T19:56:28.651Z,4.77
2022-11-15T19:58:56.351Z,4.40
2022-11-15T20:01:29.207Z,4.67
2022-11-15T20:03:58.798Z,4.90
2022-11-15T20:06:33.993Z,4.10
2022-11-15T20:09:01.007Z,4.90
2022-11-15T20:11:27.892Z,4.40
2022-11-15T20:13:59.363Z,4.47
2022-11-15T20:16:26.543Z,4.73
2022-11-15T20:18:53.406Z,4.63
2022-11-15T20:21:20.706Z,4.10
2022-11-15T20:23:47.958Z,4.40
2022-11-15T20:26:15.879Z,4.30
2022-11-15T20:28:44.688Z,4.40
2022-11-15T20:31:12.926Z,3.70
2022-11-15T20:33:39.923Z,4.87
2022-11-15T20:36:15.427Z,4.33
2022-11-15T20:38:42.548Z,4.40
2022-11-15T20:41:11.019Z,4.20
2022-11-15T20:43:37.915Z,4.07
2022-11-15T20:46:04.774Z,4.00
2022-11-15T20:48:32.017Z,4.40
2022-11-15T20:51:10.999Z,4.03
2022-11-15T20:53:37.734Z,3.70
2022-11-15T20:56:07.855Z,3.30
2022-11-15T20:58:36.596Z,3.80
2022-11-15T21:01:05.122Z,3.90
2022-11-15T21:03:32.560Z,3.90
2022-11-15T21:05:59.411Z,4.07
2022-11-15T21:08:26.524Z,3.70
2022-11-15T21:11:12.764Z,4.03
2022-11-15T21:13:40.018Z,3.60
2022-11-15T21:16:07.324Z,3.60
2022-11-15T21:18:34.373Z,3.77
2022-11-15T21:21:05.489Z,3.70
2022-11-15T21:23:32.258Z,3.73
2022-11-15T21:25:59.180Z,3.93
2022-11-15T21:28:25.967Z,3.60
2022-11-15T21:30:57.484Z,3.47
2022-11-15T21:33:27.351Z,3.30
2022-11-15T21:35:55.702Z,3.53
2022-11-15T21:38:24.000Z,3.30
2022-11-15T21:40:52.051Z,3.43
2022-11-15T21:43:19.358Z,3.50
2022-11-15T21:45:57.161Z,3.97
2022-11-15T21:48:23.884Z,3.93
2022-11-15T21:50:58.154Z,4.00
2022-11-15T21:53:25.576Z,4.30
2022-11-15T21:55:52.773Z,4.17
2022-11-15T21:58:21.105Z,3.87
2022-11-15T22:01:07.032Z,3.47
2022-11-15T22:03:34.014Z,3.87
2022-11-15T22:06:00.948Z,4.40
2022-11-15T22:08:28.037Z,3.47
2022-11-15T22:10:56.748Z,3.40
2022-11-15T22:13:25.003Z,4.33
2022-11-15T22:15:53.943Z,3.93
2022-11-15T22:18:26.258Z,4.20
2022-11-15T22:21:09.104Z,3.83
2022-11-15T22:23:36.306Z,3.93
2022-11-15T22:26:03.937Z,3.80
2022-11-15T22:28:31.315Z,4.13
2022-11-15T22:30:58.469Z,4.20
2022-11-15T22:33:27.725Z,4.10
2022-11-15T22:35:55.174Z,3.93
2022-11-15T22:38:22.518Z,3.73
2022-11-15T22:40:49.481Z,3.77
2022-11-15T22:43:18.407Z,3.37
2022-11-15T22:46:04.495Z,3.90
2022-11-15T22:48:36.866Z,4.00
2022-11-15T22:51:04.899Z,3.90
2022-11-15T22:53:31.868Z,3.93
2022-11-15T22:56:00.682Z,3.73
2022-11-15T22:58:29.458Z,3.97
2022-11-15T23:00:58.189Z,4.00
2022-11-15T23:03:26.579Z,3.80
2022-11-15T23:05:53.673Z,4.70
2022-11-15T23:08:23.229Z,4.53
2022-11-15T23:11:08.987Z,3.83
2022-11-15T23:13:35.985Z,4.50
2022-11-15T23:16:34.533Z,4.40
2022-11-15T23:19:07.405Z,3.83
2022-11-15T23:21:58.158Z,3.97
2022-11-15T23:24:25.578Z,3.70
2022-11-15T23:26:55.846Z,4.03
2022-11-15T23:29:25.040Z,4.57
2022-11-15T23:32:11.707Z,4.07
2022-11-15T23:34:43.910Z,4.30
2022-11-15T23:37:14.135Z,4.20
2022-11-15T23:39:40.929Z,4.50
2022-11-15T23:42:09.392Z,4.17
2022-11-15T23:44:36.827Z,4.43
2022-11-15T23:47:03.859Z,4.73
2022-11-15T23:49:30.607Z,4.30
2022-11-15T23:51:57.378Z,4.10
2022-11-15T23:54:24.118Z,3.63
2022-11-15T23:56:50.827Z,3.70
2022-11-15T23:59:17.682Z,4.00
